Chicago, IL - ORD

Touching down in the Windy City

The Chicago O'Hare International Airport is affectionately known as "O'Hare" and is in a constant battle with ATL - Atlanta Hartsfield-Jackson as the busiest airport in the United States. Boasting a very impressive list of over 225 destinations with it's 8 runways makes it extremely impressive to say the least. AAG operates over 45% of the total passenger share out of ORD.

ORD Based Pilots: 40   Miles to ORD: 489716
Flights from ORD: 692   Total Hours: 2741.58
Routes using ORD: 2114   From ORD: 1393.26
Total Miles: 1012347   Hours To ORD: 1348.32
Miles from ORD: 522631   ORD Charts: Click Here
VATSIM METAR: KORD 141251Z 25014G23KT 10SM FEW250 19/08 A2969 RMK AO2 PK WND 25026/1201 SLP050 T01940078
 
         
View More: Click Here
   

 

Like what you see and ready to join the team?

A rewarding and memorable virtual airline experience awaits!